SKW3766 KTUS-KLAX
Flight info
| Callsign | SKW3766 |
|---|---|
| Flight time | 1h 20m |
| Altitude | 32000 |
| Route | BURRO5 GBN J104 WLVRN ESTWD HLYWD1 |
| Aircraft | E75L/M-SDE3GILORVW/S |
Departure
| Time | 2026-04-26 04:14 |
|---|---|
| Airport | Tucson International Airport (KTUS) |
Arrival
| Time | 2026-04-26 05:35 |
|---|---|
| Airport | Los Angeles International Airport (KLAX) |
| Time | Latitude | Longitude | Altitude | Speed | Heading |
|---|---|---|---|---|---|
| 2026-04-26 04:00 | 32.11950 | -110.93796 | 2597 ft | 0 kts | 112° |
| 2026-04-26 04:09 | 32.11958 | -110.93817 | 2590 ft | 3 kts | 112° |
| 2026-04-26 04:09 | 32.11965 | -110.93838 | 2592 ft | 3 kts | 103° |
| 2026-04-26 04:09 | 32.11962 | -110.93861 | 2593 ft | 3 kts | 54° |
| 2026-04-26 04:10 | 32.11946 | -110.93874 | 2589 ft | 3 kts | 7° |
| 2026-04-26 04:10 | 32.11927 | -110.93871 | 2590 ft | 3 kts | 338° |
| 2026-04-26 04:10 | 32.11920 | -110.93865 | 2591 ft | 0 kts | 314° |
| 2026-04-26 04:11 | 32.11928 | -110.93875 | 2591 ft | 4 kts | 314° |
| 2026-04-26 04:11 | 32.11956 | -110.93909 | 2591 ft | 8 kts | 314° |
| 2026-04-26 04:12 | 32.12005 | -110.93972 | 2593 ft | 13 kts | 303° |
| 2026-04-26 04:12 | 32.12015 | -110.94087 | 2592 ft | 16 kts | 250° |
| 2026-04-26 04:12 | 32.12035 | -110.94204 | 2591 ft | 16 kts | 314° |
| 2026-04-26 04:12 | 32.12127 | -110.94306 | 2588 ft | 21 kts | 316° |
| 2026-04-26 04:13 | 32.12240 | -110.94434 | 2585 ft | 24 kts | 315° |
| 2026-04-26 04:13 | 32.12344 | -110.94557 | 2573 ft | 19 kts | 315° |
| 2026-04-26 04:13 | 32.12361 | -110.94660 | 2577 ft | 8 kts | 231° |
| 2026-04-26 04:13 | 32.12317 | -110.94711 | 2578 ft | 10 kts | 212° |
| 2026-04-26 04:14 | 32.12248 | -110.94683 | 2578 ft | 24 kts | 136° |
| 2026-04-26 04:14 | 32.11926 | -110.94314 | 2594 ft | 104 kts | 137° |
| 2026-04-26 04:14 | 32.11236 | -110.93505 | 2684 ft | 167 kts | 137° |
| 2026-04-26 04:14 | 32.10384 | -110.92469 | 3667 ft | 179 kts | 136° |
| 2026-04-26 04:15 | 32.09577 | -110.91442 | 4895 ft | 168 kts | 137° |
| 2026-04-26 04:15 | 32.08692 | -110.90420 | 5340 ft | 190 kts | 143° |
| 2026-04-26 04:15 | 32.07637 | -110.89342 | 5712 ft | 214 kts | 143° |
| 2026-04-26 04:15 | 32.06489 | -110.88061 | 6284 ft | 238 kts | 140° |
| 2026-04-26 04:16 | 32.05280 | -110.86624 | 6882 ft | 255 kts | 139° |
| 2026-04-26 04:16 | 32.04000 | -110.85094 | 7495 ft | 270 kts | 139° |
| 2026-04-26 04:16 | 32.02641 | -110.83476 | 8103 ft | 284 kts | 139° |
| 2026-04-26 04:16 | 32.01069 | -110.82086 | 8748 ft | 284 kts | 162° |
| 2026-04-26 04:17 | 31.99163 | -110.81762 | 9540 ft | 275 kts | 192° |
| 2026-04-26 04:17 | 31.97387 | -110.82529 | 10193 ft | 274 kts | 214° |
| 2026-04-26 04:17 | 31.95773 | -110.83822 | 10581 ft | 286 kts | 218° |
| 2026-04-26 04:17 | 31.94392 | -110.85526 | 11069 ft | 291 kts | 238° |
| 2026-04-26 04:18 | 31.93494 | -110.87658 | 11793 ft | 292 kts | 249° |
| 2026-04-26 04:18 | 31.92881 | -110.89916 | 12531 ft | 295 kts | 255° |
| 2026-04-26 04:18 | 31.92838 | -110.92332 | 13303 ft | 302 kts | 281° |
| 2026-04-26 04:18 | 31.93590 | -110.94661 | 14085 ft | 307 kts | 290° |
| 2026-04-26 04:19 | 31.94569 | -110.96915 | 14825 ft | 311 kts | 293° |
| 2026-04-26 04:19 | 31.95636 | -110.99155 | 15562 ft | 315 kts | 294° |
| 2026-04-26 04:19 | 31.96760 | -111.01388 | 16292 ft | 317 kts | 296° |
| 2026-04-26 04:19 | 31.98026 | -111.03545 | 17025 ft | 321 kts | 299° |
| 2026-04-26 04:20 | 31.99332 | -111.05690 | 17728 ft | 324 kts | 299° |
| 2026-04-26 04:20 | 32.00634 | -111.07815 | 18440 ft | 325 kts | 299° |
| 2026-04-26 04:20 | 32.01979 | -111.10011 | 19072 ft | 328 kts | 298° |
| 2026-04-26 04:20 | 32.03305 | -111.12175 | 19703 ft | 330 kts | 298° |
| 2026-04-26 04:21 | 32.04656 | -111.14379 | 20402 ft | 332 kts | 298° |
| 2026-04-26 04:21 | 32.06015 | -111.16583 | 21090 ft | 334 kts | 299° |
| 2026-04-26 04:21 | 32.07409 | -111.18788 | 21757 ft | 337 kts | 300° |
| 2026-04-26 04:21 | 32.08915 | -111.20954 | 22388 ft | 343 kts | 303° |
| 2026-04-26 04:22 | 32.10513 | -111.23066 | 22999 ft | 346 kts | 304° |
| 2026-04-26 04:22 | 32.12133 | -111.25190 | 23562 ft | 349 kts | 304° |
| 2026-04-26 04:22 | 32.13763 | -111.27317 | 24034 ft | 351 kts | 303° |
| 2026-04-26 04:22 | 32.15415 | -111.29474 | 24539 ft | 354 kts | 303° |
| 2026-04-26 04:23 | 32.17059 | -111.31622 | 25051 ft | 356 kts | 303° |
| 2026-04-26 04:23 | 32.18733 | -111.33810 | 25549 ft | 358 kts | 303° |
| 2026-04-26 04:23 | 32.20407 | -111.35999 | 26064 ft | 360 kts | 303° |
| 2026-04-26 04:23 | 32.22067 | -111.38171 | 26531 ft | 363 kts | 303° |
| 2026-04-26 04:24 | 32.23764 | -111.40396 | 26980 ft | 366 kts | 303° |
| 2026-04-26 04:24 | 32.25476 | -111.42642 | 27443 ft | 367 kts | 302° |
| 2026-04-26 04:24 | 32.27140 | -111.44929 | 27867 ft | 368 kts | 301° |
| 2026-04-26 04:24 | 32.28744 | -111.47281 | 28301 ft | 366 kts | 297° |
| 2026-04-26 04:25 | 32.30191 | -111.49759 | 28730 ft | 367 kts | 296° |
| 2026-04-26 04:25 | 32.31621 | -111.52260 | 29152 ft | 368 kts | 295° |
| 2026-04-26 04:25 | 32.33052 | -111.54796 | 29569 ft | 370 kts | 295° |
| 2026-04-26 04:25 | 32.34483 | -111.57341 | 29881 ft | 375 kts | 295° |
| 2026-04-26 04:26 | 32.35923 | -111.59902 | 30080 ft | 380 kts | 295° |
| 2026-04-26 04:26 | 32.37405 | -111.62531 | 30520 ft | 379 kts | 295° |
| 2026-04-26 04:26 | 32.38859 | -111.65116 | 30975 ft | 377 kts | 295° |
| 2026-04-26 04:26 | 32.40292 | -111.67667 | 31413 ft | 375 kts | 294° |
| 2026-04-26 04:27 | 32.41728 | -111.70223 | 31677 ft | 367 kts | 294° |
| 2026-04-26 04:27 | 32.44572 | -111.75299 | 31772 ft | 375 kts | 294° |
| 2026-04-26 04:28 | 32.47474 | -111.80470 | 31789 ft | 377 kts | 294° |
| 2026-04-26 04:28 | 32.50372 | -111.85648 | 31790 ft | 377 kts | 294° |
| 2026-04-26 04:29 | 32.53269 | -111.90828 | 31798 ft | 376 kts | 294° |
| 2026-04-26 04:29 | 32.56140 | -111.95972 | 31779 ft | 376 kts | 294° |
| 2026-04-26 04:30 | 32.59024 | -112.01145 | 31786 ft | 376 kts | 294° |
| 2026-04-26 04:30 | 32.61910 | -112.06329 | 31782 ft | 376 kts | 294° |
| 2026-04-26 04:31 | 32.64787 | -112.11504 | 31782 ft | 376 kts | 294° |
| 2026-04-26 04:31 | 32.67661 | -112.16679 | 31797 ft | 375 kts | 294° |
| 2026-04-26 04:32 | 32.70533 | -112.21860 | 31789 ft | 375 kts | 294° |
| 2026-04-26 04:32 | 32.73399 | -112.27036 | 31785 ft | 375 kts | 294° |
| 2026-04-26 04:33 | 32.76259 | -112.32210 | 31790 ft | 375 kts | 294° |
| 2026-04-26 04:33 | 32.79110 | -112.37372 | 31796 ft | 375 kts | 294° |
| 2026-04-26 04:34 | 32.81970 | -112.42559 | 31803 ft | 375 kts | 294° |
| 2026-04-26 04:34 | 32.84346 | -112.46873 | 31809 ft | 375 kts | 294° |
| 2026-04-26 04:35 | 32.87201 | -112.52063 | 31801 ft | 375 kts | 294° |
| 2026-04-26 04:35 | 32.90510 | -112.58091 | 31810 ft | 374 kts | 294° |
| 2026-04-26 04:36 | 32.92880 | -112.62413 | 31824 ft | 374 kts | 294° |
| 2026-04-26 04:36 | 32.95887 | -112.67509 | 31839 ft | 377 kts | 297° |
| 2026-04-26 04:37 | 32.99341 | -112.72320 | 31816 ft | 383 kts | 302° |
| 2026-04-26 04:37 | 33.02902 | -112.77031 | 31814 ft | 383 kts | 302° |
| 2026-04-26 04:38 | 33.06477 | -112.81752 | 31801 ft | 383 kts | 302° |
| 2026-04-26 04:38 | 33.10045 | -112.86474 | 31790 ft | 383 kts | 302° |
| 2026-04-26 04:39 | 33.13613 | -112.91201 | 31772 ft | 383 kts | 302° |
| 2026-04-26 04:39 | 33.17179 | -112.95934 | 31773 ft | 384 kts | 302° |
| 2026-04-26 04:40 | 33.20721 | -113.00641 | 31765 ft | 383 kts | 302° |
| 2026-04-26 04:40 | 33.24280 | -113.05378 | 31767 ft | 383 kts | 302° |
| 2026-04-26 04:41 | 33.27839 | -113.10115 | 31759 ft | 383 kts | 302° |
| 2026-04-26 04:41 | 33.31390 | -113.14855 | 31764 ft | 382 kts | 302° |
| 2026-04-26 04:42 | 33.34931 | -113.19585 | 31764 ft | 382 kts | 302° |
| 2026-04-26 04:42 | 33.38474 | -113.24322 | 31774 ft | 381 kts | 302° |
| 2026-04-26 04:43 | 33.42011 | -113.29059 | 31796 ft | 381 kts | 302° |
| 2026-04-26 04:43 | 33.45531 | -113.33780 | 31836 ft | 380 kts | 302° |
| 2026-04-26 04:44 | 33.49031 | -113.38482 | 31856 ft | 380 kts | 302° |
| 2026-04-26 04:44 | 33.52550 | -113.43211 | 31899 ft | 379 kts | 302° |
| 2026-04-26 04:45 | 33.56061 | -113.47938 | 31908 ft | 379 kts | 302° |
| 2026-04-26 04:45 | 33.59570 | -113.52670 | 31923 ft | 379 kts | 302° |
| 2026-04-26 04:46 | 33.63076 | -113.57402 | 31918 ft | 379 kts | 302° |
| 2026-04-26 04:46 | 33.66578 | -113.62136 | 31928 ft | 379 kts | 302° |
| 2026-04-26 04:47 | 33.70062 | -113.66853 | 31888 ft | 379 kts | 302° |
| 2026-04-26 04:47 | 33.73554 | -113.71586 | 31872 ft | 379 kts | 302° |
| 2026-04-26 04:48 | 33.78592 | -113.78834 | 31827 ft | 370 kts | 294° |
| 2026-04-26 04:48 | 33.81156 | -113.84156 | 31812 ft | 366 kts | 290° |
| 2026-04-26 04:49 | 33.83185 | -113.89723 | 31772 ft | 362 kts | 286° |
| 2026-04-26 04:49 | 33.85092 | -113.95327 | 31771 ft | 362 kts | 286° |
| 2026-04-26 04:50 | 33.86991 | -114.00935 | 31777 ft | 362 kts | 286° |
| 2026-04-26 04:50 | 33.88887 | -114.06544 | 31762 ft | 361 kts | 285° |
| 2026-04-26 04:51 | 33.90502 | -114.12255 | 31771 ft | 359 kts | 282° |
| 2026-04-26 04:51 | 33.91656 | -114.18073 | 31774 ft | 357 kts | 277° |
| 2026-04-26 04:52 | 33.92651 | -114.23888 | 31751 ft | 356 kts | 277° |
| 2026-04-26 04:52 | 33.93649 | -114.29783 | 31762 ft | 357 kts | 277° |
| 2026-04-26 04:53 | 33.94629 | -114.35595 | 31747 ft | 357 kts | 277° |
| 2026-04-26 04:53 | 33.95616 | -114.41453 | 31753 ft | 357 kts | 277° |
| 2026-04-26 04:54 | 33.96600 | -114.47314 | 31411 ft | 358 kts | 277° |
| 2026-04-26 04:54 | 33.97092 | -114.50252 | 31164 ft | 359 kts | 277° |
| 2026-04-26 04:54 | 33.97589 | -114.53223 | 30920 ft | 362 kts | 277° |
| 2026-04-26 04:55 | 33.98090 | -114.56219 | 30680 ft | 364 kts | 278° |
| 2026-04-26 04:55 | 33.98587 | -114.59203 | 30436 ft | 365 kts | 278° |
| 2026-04-26 04:55 | 33.99090 | -114.62223 | 30204 ft | 368 kts | 278° |
| 2026-04-26 04:55 | 33.99594 | -114.65252 | 29974 ft | 370 kts | 278° |
| 2026-04-26 04:56 | 34.00094 | -114.68264 | 29741 ft | 372 kts | 278° |
| 2026-04-26 04:56 | 34.00600 | -114.71320 | 29474 ft | 371 kts | 278° |
| 2026-04-26 04:56 | 34.01105 | -114.74366 | 29200 ft | 370 kts | 278° |
| 2026-04-26 04:56 | 34.01605 | -114.77390 | 28944 ft | 368 kts | 278° |
| 2026-04-26 04:57 | 34.02103 | -114.80415 | 28671 ft | 367 kts | 278° |
| 2026-04-26 04:57 | 34.02598 | -114.83426 | 28396 ft | 366 kts | 278° |
| 2026-04-26 04:57 | 34.03094 | -114.86437 | 28130 ft | 365 kts | 278° |
| 2026-04-26 04:57 | 34.03586 | -114.89430 | 27867 ft | 363 kts | 278° |
| 2026-04-26 04:58 | 34.04074 | -114.92413 | 27601 ft | 362 kts | 278° |
| 2026-04-26 04:58 | 34.04562 | -114.95401 | 27335 ft | 361 kts | 278° |
| 2026-04-26 04:58 | 34.05044 | -114.98362 | 27088 ft | 360 kts | 279° |
| 2026-04-26 04:58 | 34.05529 | -115.01320 | 26897 ft | 358 kts | 278° |
| 2026-04-26 04:59 | 34.06011 | -115.04272 | 26777 ft | 359 kts | 279° |
| 2026-04-26 04:59 | 34.06492 | -115.07230 | 26651 ft | 358 kts | 279° |
| 2026-04-26 04:59 | 34.06975 | -115.10188 | 26526 ft | 358 kts | 279° |
| 2026-04-26 04:59 | 34.07451 | -115.13118 | 26404 ft | 358 kts | 279° |
| 2026-04-26 05:00 | 34.07931 | -115.16073 | 26280 ft | 357 kts | 279° |
| 2026-04-26 05:00 | 34.08392 | -115.18921 | 26146 ft | 357 kts | 279° |
| 2026-04-26 05:00 | 34.08859 | -115.21803 | 26022 ft | 355 kts | 279° |
| 2026-04-26 05:00 | 34.09333 | -115.24732 | 25901 ft | 356 kts | 279° |
| 2026-04-26 05:01 | 34.09804 | -115.27657 | 25793 ft | 355 kts | 279° |
| 2026-04-26 05:01 | 34.10276 | -115.30583 | 25663 ft | 354 kts | 280° |
| 2026-04-26 05:01 | 34.10747 | -115.33496 | 25542 ft | 354 kts | 279° |
| 2026-04-26 05:01 | 34.11212 | -115.36418 | 25415 ft | 353 kts | 279° |
| 2026-04-26 05:02 | 34.11675 | -115.39313 | 25290 ft | 353 kts | 279° |
| 2026-04-26 05:02 | 34.12143 | -115.42231 | 25176 ft | 353 kts | 279° |
| 2026-04-26 05:02 | 34.12608 | -115.45146 | 25067 ft | 354 kts | 279° |
| 2026-04-26 05:02 | 34.13072 | -115.48055 | 24935 ft | 354 kts | 279° |
| 2026-04-26 05:03 | 34.13536 | -115.50968 | 24825 ft | 352 kts | 279° |
| 2026-04-26 05:03 | 34.13999 | -115.53875 | 24734 ft | 352 kts | 279° |
| 2026-04-26 05:03 | 34.14458 | -115.56770 | 24625 ft | 352 kts | 279° |
| 2026-04-26 05:03 | 34.14921 | -115.59679 | 24502 ft | 354 kts | 279° |
| 2026-04-26 05:04 | 34.15378 | -115.62581 | 24406 ft | 351 kts | 279° |
| 2026-04-26 05:04 | 34.15759 | -115.65488 | 24301 ft | 350 kts | 274° |
| 2026-04-26 05:04 | 34.15894 | -115.68416 | 24195 ft | 350 kts | 271° |
| 2026-04-26 05:04 | 34.15930 | -115.71356 | 24092 ft | 349 kts | 270° |
| 2026-04-26 05:05 | 34.15835 | -115.74289 | 23977 ft | 349 kts | 265° |
| 2026-04-26 05:05 | 34.15586 | -115.77203 | 23879 ft | 349 kts | 264° |
| 2026-04-26 05:05 | 34.15314 | -115.80120 | 23834 ft | 349 kts | 264° |
| 2026-04-26 05:05 | 34.15037 | -115.82984 | 23818 ft | 349 kts | 264° |
| 2026-04-26 05:06 | 34.14753 | -115.85903 | 23820 ft | 349 kts | 264° |
| 2026-04-26 05:06 | 34.14470 | -115.88819 | 23831 ft | 349 kts | 264° |
| 2026-04-26 05:06 | 34.14186 | -115.91728 | 23831 ft | 349 kts | 264° |
| 2026-04-26 05:06 | 34.13899 | -115.94640 | 23848 ft | 349 kts | 264° |
| 2026-04-26 05:07 | 34.13616 | -115.97543 | 23857 ft | 349 kts | 264° |
| 2026-04-26 05:07 | 34.13332 | -116.00454 | 23874 ft | 349 kts | 264° |
| 2026-04-26 05:07 | 34.13048 | -116.03363 | 23865 ft | 349 kts | 264° |
| 2026-04-26 05:07 | 34.12762 | -116.06274 | 23873 ft | 349 kts | 264° |
| 2026-04-26 05:08 | 34.12477 | -116.09180 | 23878 ft | 349 kts | 264° |
| 2026-04-26 05:08 | 34.12194 | -116.12067 | 23878 ft | 350 kts | 264° |
| 2026-04-26 05:08 | 34.11905 | -116.14973 | 23883 ft | 349 kts | 264° |
| 2026-04-26 05:08 | 34.11616 | -116.17894 | 23876 ft | 350 kts | 264° |
| 2026-04-26 05:09 | 34.11331 | -116.20784 | 23869 ft | 350 kts | 264° |
| 2026-04-26 05:09 | 34.11038 | -116.23723 | 23888 ft | 350 kts | 264° |
| 2026-04-26 05:09 | 34.10769 | -116.26646 | 23870 ft | 350 kts | 264° |
| 2026-04-26 05:09 | 34.10460 | -116.29559 | 23865 ft | 350 kts | 263° |
| 2026-04-26 05:10 | 34.10149 | -116.32482 | 23857 ft | 351 kts | 263° |
| 2026-04-26 05:10 | 34.09838 | -116.35402 | 23858 ft | 350 kts | 263° |
| 2026-04-26 05:10 | 34.09525 | -116.38325 | 23857 ft | 351 kts | 263° |
| 2026-04-26 05:10 | 34.09212 | -116.41251 | 23835 ft | 351 kts | 263° |
| 2026-04-26 05:11 | 34.08902 | -116.44141 | 23834 ft | 352 kts | 263° |
| 2026-04-26 05:11 | 34.08587 | -116.47073 | 23850 ft | 352 kts | 263° |
| 2026-04-26 05:11 | 34.08271 | -116.50002 | 23857 ft | 352 kts | 263° |
| 2026-04-26 05:11 | 34.07954 | -116.52938 | 23852 ft | 352 kts | 263° |
| 2026-04-26 05:12 | 34.07603 | -116.55864 | 23840 ft | 353 kts | 263° |
| 2026-04-26 05:12 | 34.07320 | -116.58819 | 23861 ft | 353 kts | 264° |
| 2026-04-26 05:12 | 34.07042 | -116.61765 | 23726 ft | 355 kts | 264° |
| 2026-04-26 05:12 | 34.06768 | -116.64715 | 23496 ft | 353 kts | 264° |
| 2026-04-26 05:13 | 34.06499 | -116.67643 | 23239 ft | 352 kts | 264° |
| 2026-04-26 05:13 | 34.06230 | -116.70573 | 22979 ft | 351 kts | 264° |
| 2026-04-26 05:13 | 34.05970 | -116.73343 | 22729 ft | 350 kts | 264° |
| 2026-04-26 05:13 | 34.05697 | -116.76261 | 22463 ft | 349 kts | 264° |
| 2026-04-26 05:14 | 34.05430 | -116.79124 | 22200 ft | 348 kts | 264° |
| 2026-04-26 05:14 | 34.05159 | -116.82016 | 21955 ft | 346 kts | 264° |
| 2026-04-26 05:14 | 34.04908 | -116.84892 | 21729 ft | 345 kts | 265° |
| 2026-04-26 05:14 | 34.04641 | -116.87773 | 21490 ft | 344 kts | 262° |
| 2026-04-26 05:15 | 34.04283 | -116.90628 | 21265 ft | 343 kts | 262° |
| 2026-04-26 05:15 | 34.03921 | -116.93462 | 21044 ft | 342 kts | 262° |
| 2026-04-26 05:15 | 34.03553 | -116.96290 | 20816 ft | 341 kts | 262° |
| 2026-04-26 05:15 | 34.03165 | -116.99111 | 20586 ft | 340 kts | 261° |
| 2026-04-26 05:16 | 34.02806 | -117.01918 | 20356 ft | 339 kts | 262° |
| 2026-04-26 05:16 | 34.02472 | -117.04737 | 20047 ft | 339 kts | 262° |
| 2026-04-26 05:16 | 34.02140 | -117.07546 | 19567 ft | 337 kts | 262° |
| 2026-04-26 05:16 | 34.01811 | -117.10326 | 19087 ft | 334 kts | 262° |
| 2026-04-26 05:17 | 34.01483 | -117.13090 | 18623 ft | 331 kts | 262° |
| 2026-04-26 05:17 | 34.01159 | -117.15829 | 18142 ft | 330 kts | 262° |
| 2026-04-26 05:17 | 34.00833 | -117.18560 | 17516 ft | 329 kts | 262° |
| 2026-04-26 05:17 | 34.00509 | -117.21275 | 16868 ft | 326 kts | 262° |
| 2026-04-26 05:18 | 34.00188 | -117.23964 | 16240 ft | 322 kts | 262° |
| 2026-04-26 05:18 | 33.99871 | -117.26617 | 15615 ft | 318 kts | 262° |
| 2026-04-26 05:18 | 33.99565 | -117.29254 | 15012 ft | 315 kts | 262° |
| 2026-04-26 05:18 | 33.99251 | -117.31859 | 14397 ft | 312 kts | 260° |
| 2026-04-26 05:19 | 33.98526 | -117.34265 | 13820 ft | 304 kts | 245° |
| 2026-04-26 05:19 | 33.97549 | -117.36486 | 13192 ft | 304 kts | 243° |
| 2026-04-26 05:19 | 33.96456 | -117.38663 | 12545 ft | 304 kts | 233° |
| 2026-04-26 05:19 | 33.94821 | -117.40267 | 12164 ft | 301 kts | 217° |
| 2026-04-26 05:20 | 33.93043 | -117.41583 | 12069 ft | 302 kts | 214° |
| 2026-04-26 05:20 | 33.91224 | -117.42870 | 12024 ft | 305 kts | 216° |
| 2026-04-26 05:20 | 33.89719 | -117.44604 | 11991 ft | 298 kts | 240° |
| 2026-04-26 05:20 | 33.89098 | -117.46942 | 11988 ft | 295 kts | 267° |
| 2026-04-26 05:21 | 33.89498 | -117.49345 | 12000 ft | 300 kts | 293° |
| 2026-04-26 05:21 | 33.90785 | -117.51360 | 12012 ft | 305 kts | 310° |
| 2026-04-26 05:21 | 33.91819 | -117.52558 | 12057 ft | 308 kts | 313° |
| 2026-04-26 05:21 | 33.93884 | -117.54890 | 12066 ft | 305 kts | 305° |
| 2026-04-26 05:22 | 33.94838 | -117.57134 | 12042 ft | 300 kts | 287° |
| 2026-04-26 05:22 | 33.95258 | -117.58755 | 11827 ft | 302 kts | 284° |
| 2026-04-26 05:22 | 33.95781 | -117.61111 | 11340 ft | 300 kts | 282° |
| 2026-04-26 05:22 | 33.96277 | -117.63549 | 10843 ft | 297 kts | 282° |
| 2026-04-26 05:23 | 33.96747 | -117.65949 | 10360 ft | 294 kts | 281° |
| 2026-04-26 05:23 | 33.97208 | -117.68352 | 9893 ft | 293 kts | 281° |
| 2026-04-26 05:23 | 33.97661 | -117.70747 | 9547 ft | 286 kts | 281° |
| 2026-04-26 05:23 | 33.98075 | -117.72916 | 9521 ft | 244 kts | 281° |
| 2026-04-26 05:24 | 33.98438 | -117.74774 | 9427 ft | 211 kts | 281° |
| 2026-04-26 05:24 | 33.98758 | -117.76384 | 9318 ft | 189 kts | 281° |
| 2026-04-26 05:24 | 33.99073 | -117.77957 | 9287 ft | 202 kts | 281° |
| 2026-04-26 05:24 | 33.99409 | -117.79660 | 9324 ft | 214 kts | 281° |
| 2026-04-26 05:25 | 33.99756 | -117.81448 | 9338 ft | 226 kts | 281° |
| 2026-04-26 05:25 | 33.99960 | -117.83343 | 8784 ft | 225 kts | 261° |
| 2026-04-26 05:25 | 33.99564 | -117.85138 | 8225 ft | 220 kts | 252° |
| 2026-04-26 05:25 | 33.99087 | -117.86867 | 7680 ft | 220 kts | 252° |
| 2026-04-26 05:26 | 33.98765 | -117.88688 | 7127 ft | 220 kts | 261° |
| 2026-04-26 05:26 | 33.98539 | -117.90485 | 6595 ft | 219 kts | 262° |
| 2026-04-26 05:26 | 33.98342 | -117.92297 | 6035 ft | 218 kts | 263° |
| 2026-04-26 05:26 | 33.98163 | -117.94109 | 5473 ft | 217 kts | 263° |
| 2026-04-26 05:27 | 33.97990 | -117.95902 | 4929 ft | 217 kts | 263° |
| 2026-04-26 05:27 | 33.97812 | -117.97716 | 4361 ft | 217 kts | 263° |
| 2026-04-26 05:27 | 33.97637 | -117.99499 | 4113 ft | 213 kts | 263° |
| 2026-04-26 05:27 | 33.97459 | -118.01283 | 4064 ft | 216 kts | 263° |
| 2026-04-26 05:28 | 33.97279 | -118.03091 | 3754 ft | 216 kts | 263° |
| 2026-04-26 05:28 | 33.97081 | -118.04880 | 3453 ft | 211 kts | 262° |
| 2026-04-26 05:28 | 33.96914 | -118.06459 | 3166 ft | 196 kts | 263° |
| 2026-04-26 05:28 | 33.96757 | -118.08079 | 2907 ft | 190 kts | 263° |
| 2026-04-26 05:29 | 33.96603 | -118.09647 | 2646 ft | 186 kts | 263° |
| 2026-04-26 05:29 | 33.96449 | -118.11182 | 2392 ft | 183 kts | 263° |
| 2026-04-26 05:29 | 33.96301 | -118.12687 | 2121 ft | 178 kts | 263° |
| 2026-04-26 05:29 | 33.96158 | -118.14117 | 2019 ft | 167 kts | 263° |
| 2026-04-26 05:30 | 33.96024 | -118.15471 | 1967 ft | 160 kts | 263° |
| 2026-04-26 05:30 | 33.95892 | -118.16797 | 1973 ft | 158 kts | 263° |
| 2026-04-26 05:30 | 33.95762 | -118.18101 | 1996 ft | 160 kts | 263° |
| 2026-04-26 05:30 | 33.95630 | -118.19425 | 2011 ft | 160 kts | 263° |
| 2026-04-26 05:31 | 33.95498 | -118.20748 | 2035 ft | 155 kts | 263° |
| 2026-04-26 05:31 | 33.95371 | -118.22017 | 2020 ft | 151 kts | 263° |
| 2026-04-26 05:31 | 33.95247 | -118.23260 | 2011 ft | 148 kts | 263° |
| 2026-04-26 05:31 | 33.95123 | -118.24492 | 2003 ft | 149 kts | 263° |
| 2026-04-26 05:32 | 33.94999 | -118.25730 | 2028 ft | 147 kts | 263° |
| 2026-04-26 05:32 | 33.94875 | -118.26963 | 1951 ft | 147 kts | 263° |
| 2026-04-26 05:32 | 33.94758 | -118.28141 | 1758 ft | 136 kts | 262° |
| 2026-04-26 05:32 | 33.94648 | -118.29232 | 1576 ft | 126 kts | 263° |
| 2026-04-26 05:33 | 33.94539 | -118.30302 | 1438 ft | 132 kts | 263° |
| 2026-04-26 05:33 | 33.94430 | -118.31398 | 1300 ft | 131 kts | 264° |
| 2026-04-26 05:33 | 33.94319 | -118.32496 | 1127 ft | 132 kts | 262° |
| 2026-04-26 05:33 | 33.94210 | -118.33576 | 947 ft | 132 kts | 263° |
| 2026-04-26 05:34 | 33.94098 | -118.34679 | 746 ft | 130 kts | 263° |
| 2026-04-26 05:34 | 33.93983 | -118.35745 | 515 ft | 132 kts | 262° |
| 2026-04-26 05:34 | 33.93858 | -118.36866 | 396 ft | 134 kts | 263° |
| 2026-04-26 05:34 | 33.93755 | -118.37961 | 215 ft | 132 kts | 265° |
| 2026-04-26 05:35 | 33.93651 | -118.39012 | 106 ft | 117 kts | 264° |
| 2026-04-26 05:35 | 33.93579 | -118.39830 | 114 ft | 62 kts | 263° |
| 2026-04-26 05:35 | 33.93586 | -118.40204 | 118 ft | 36 kts | 279° |
| 2026-04-26 05:35 | 33.93595 | -118.40265 | 116 ft | 0 kts | 284° |
| 2026-04-26 05:36 | 33.93596 | -118.40270 | 116 ft | 2 kts | 285° |
| 2026-04-26 05:36 | 33.93611 | -118.40314 | 120 ft | 8 kts | 307° |
| 2026-04-26 05:36 | 33.93637 | -118.40335 | 121 ft | 3 kts | 345° |
| 2026-04-26 05:37 | 33.93666 | -118.40360 | 121 ft | 9 kts | 303° |
| 2026-04-26 05:37 | 33.93747 | -118.40422 | 114 ft | 16 kts | 350° |
| 2026-04-26 05:37 | 33.93804 | -118.40440 | 122 ft | 7 kts | 327° |
| 2026-04-26 05:37 | 33.93835 | -118.40508 | 129 ft | 12 kts | 311° |
| 2026-04-26 05:38 | 33.93890 | -118.40569 | 130 ft | 18 kts | 292° |
| 2026-04-26 05:38 | 33.93893 | -118.40672 | 133 ft | 9 kts | 265° |
| 2026-04-26 05:38 | 33.93912 | -118.40746 | 134 ft | 5 kts | 4° |
| 2026-04-26 05:38 | 33.93939 | -118.40729 | 132 ft | 4 kts | 42° |
| 2026-04-26 05:39 | 33.93944 | -118.40724 | 132 ft | 0 kts | 42° |